createdAt,value
2018-05-18T00:01:15.020Z,26.47
2018-05-18T00:03:42.496Z,26.03
2018-05-18T00:06:09.959Z,24.23
2018-05-18T00:08:37.457Z,24.57
2018-05-18T00:11:04.922Z,27.37
2018-05-18T00:13:32.407Z,28.10
2018-05-18T00:16:00.611Z,26.83
2018-05-18T00:18:28.073Z,25.97
2018-05-18T00:20:55.535Z,27.70
2018-05-18T00:23:22.971Z,25.60
2018-05-18T00:25:51.192Z,26.87
2018-05-18T00:28:18.658Z,26.73
2018-05-18T00:30:46.101Z,26.20
2018-05-18T00:33:13.555Z,24.30
2018-05-18T00:35:41.008Z,25.60
2018-05-18T00:38:08.456Z,26.60
2018-05-18T00:40:36.686Z,26.50
2018-05-18T00:43:04.160Z,25.80
2018-05-18T00:45:31.619Z,24.80
2018-05-18T00:47:59.087Z,24.03
2018-05-18T00:50:26.552Z,24.73
2018-05-18T00:52:54.009Z,25.90
2018-05-18T00:55:33.573Z,24.63
2018-05-18T00:58:00.980Z,26.37
2018-05-18T01:00:28.426Z,27.30
2018-05-18T01:03:05.603Z,25.63
2018-05-18T01:05:33.904Z,26.63
2018-05-18T01:08:01.344Z,26.00
2018-05-18T01:10:29.556Z,25.37
2018-05-18T01:12:57.006Z,24.87
2018-05-18T01:15:24.460Z,25.13
2018-05-18T01:17:51.906Z,26.30
2018-05-18T01:20:20.129Z,25.40
2018-05-18T01:22:47.578Z,25.93
2018-05-18T01:25:15.081Z,24.70
2018-05-18T01:27:42.544Z,24.77
2018-05-18T01:30:09.991Z,25.33
2018-05-18T01:32:37.432Z,25.17
2018-05-18T01:35:04.888Z,25.07
2018-05-18T01:37:32.346Z,26.40
2018-05-18T01:39:59.817Z,26.87
2018-05-18T01:42:27.281Z,28.83
2018-05-18T01:44:54.752Z,28.77
2018-05-18T01:47:22.196Z,27.83
2018-05-18T01:49:49.662Z,28.93
2018-05-18T01:52:17.121Z,27.40
2018-05-18T01:54:44.579Z,27.43
2018-05-18T01:57:12.041Z,28.80
2018-05-18T01:59:39.488Z,27.73
2018-05-18T02:02:07.727Z,28.27
2018-05-18T02:04:35.941Z,26.63
2018-05-18T02:07:04.160Z,25.17
2018-05-18T02:09:31.610Z,24.93
2018-05-18T02:11:59.112Z,26.07
2018-05-18T02:14:26.562Z,25.33
2018-05-18T02:16:54.111Z,24.30
2018-05-18T02:19:21.555Z,22.90
2018-05-18T02:21:49.003Z,25.70
2018-05-18T02:24:17.222Z,23.63
2018-05-18T02:26:44.869Z,24.63
2018-05-18T02:29:12.311Z,25.43
2018-05-18T02:31:40.537Z,26.10
2018-05-18T02:34:08.781Z,24.23
2018-05-18T02:36:36.260Z,24.67
2018-05-18T02:39:03.714Z,24.80
2018-05-18T02:41:31.180Z,23.40
2018-05-18T02:43:58.622Z,24.10
2018-05-18T02:46:26.835Z,21.83
2018-05-18T02:48:54.282Z,23.20
2018-05-18T02:51:21.735Z,21.10
2018-05-18T02:53:49.180Z,23.07
2018-05-18T02:56:17.406Z,22.77
2018-05-18T02:58:44.851Z,23.90
2018-05-18T03:01:12.324Z,22.30
2018-05-18T03:03:39.789Z,21.70
2018-05-18T03:06:07.243Z,22.50
2018-05-18T03:08:34.708Z,21.40
2018-05-18T03:11:02.171Z,21.57
2018-05-18T03:13:29.654Z,22.60
2018-05-18T03:15:57.107Z,20.70
2018-05-18T03:18:24.580Z,19.50
2018-05-18T03:20:52.069Z,21.67
2018-05-18T03:23:19.518Z,20.33
2018-05-18T03:25:46.972Z,21.03
2018-05-18T03:28:14.438Z,21.33
2018-05-18T03:30:41.898Z,21.13
2018-05-18T03:33:09.412Z,20.60
2018-05-18T03:35:36.838Z,21.27
2018-05-18T03:38:04.315Z,19.97
2018-05-18T03:40:32.548Z,19.23
2018-05-18T03:43:00.161Z,20.50
2018-05-18T03:45:28.386Z,21.57
2018-05-18T03:47:55.848Z,19.67
2018-05-18T03:50:23.299Z,20.27
2018-05-18T03:52:50.757Z,21.13
2018-05-18T03:55:18.216Z,21.13
2018-05-18T03:57:45.694Z,20.43
2018-05-18T04:00:13.157Z,21.10
2018-05-18T04:02:52.389Z,20.10
2018-05-18T04:05:31.700Z,19.50
2018-05-18T04:08:09.852Z,17.53
2018-05-18T04:10:38.080Z,17.43
2018-05-18T04:13:06.310Z,16.07
2018-05-18T04:15:33.769Z,16.60
2018-05-18T04:18:01.231Z,17.27
2018-05-18T04:20:28.713Z,18.17
2018-05-18T04:22:56.182Z,19.00
2018-05-18T04:25:23.653Z,18.90
2018-05-18T04:27:51.126Z,18.03
2018-05-18T04:30:19.401Z,18.07
2018-05-18T04:32:46.874Z,17.97
2018-05-18T04:35:15.222Z,17.47
2018-05-18T04:37:42.677Z,19.17
2018-05-18T04:40:10.904Z,18.67
2018-05-18T04:42:39.128Z,18.70
2018-05-18T04:45:06.590Z,21.90
2018-05-18T04:47:34.047Z,22.20
2018-05-18T04:50:01.515Z,25.40
2018-05-18T04:52:28.976Z,19.67
2018-05-18T04:54:56.444Z,19.50
2018-05-18T04:57:23.902Z,17.83
2018-05-18T04:59:51.356Z,18.47
2018-05-18T05:02:18.822Z,17.83
2018-05-18T05:04:46.275Z,18.43
2018-05-18T05:07:13.740Z,18.80
2018-05-18T05:09:41.216Z,18.17
2018-05-18T05:12:08.676Z,18.10
2018-05-18T05:14:36.140Z,16.87
2018-05-18T05:17:04.360Z,17.70
2018-05-18T05:19:32.577Z,19.63
2018-05-18T05:22:00.040Z,19.83
2018-05-18T05:24:27.500Z,17.50
2018-05-18T05:26:54.960Z,16.27
2018-05-18T05:29:22.425Z,16.13
2018-05-18T05:31:49.863Z,17.03
2018-05-18T05:34:18.092Z,21.10
2018-05-18T05:36:46.401Z,15.93
2018-05-18T05:39:14.544Z,15.77
2018-05-18T05:41:42.028Z,16.57
2018-05-18T05:46:43.473Z,13.97
2018-05-18T05:49:10.925Z,13.73
2018-05-18T05:51:38.387Z,14.60
2018-05-18T05:54:05.839Z,14.10
2018-05-18T05:56:33.312Z,13.97
2018-05-18T05:59:00.772Z,14.33
2018-05-18T06:01:28.237Z,13.57
2018-05-18T06:03:55.705Z,13.37
2018-05-18T06:06:23.932Z,13.90
2018-05-18T06:08:51.384Z,12.10
2018-05-18T06:11:18.844Z,12.30
2018-05-18T06:13:46.312Z,11.23
2018-05-18T06:16:13.775Z,11.80
2018-05-18T06:18:41.225Z,10.63
2018-05-18T06:21:08.679Z,12.10
2018-05-18T06:23:36.135Z,11.23
2018-05-18T06:26:03.577Z,11.63
2018-05-18T06:28:31.036Z,12.07
2018-05-18T06:30:58.490Z,11.03
2018-05-18T06:33:25.941Z,12.13
2018-05-18T06:35:54.159Z,11.47
2018-05-18T06:38:21.612Z,11.87
2018-05-18T06:40:49.075Z,11.13
2018-05-18T06:43:16.521Z,11.43
2018-05-18T06:45:44.013Z,11.77
2018-05-18T06:48:11.458Z,12.40
2018-05-18T06:50:38.910Z,12.00
2018-05-18T06:53:06.352Z,12.27
2018-05-18T06:55:34.583Z,11.60
2018-05-18T06:58:02.024Z,12.23
2018-05-18T07:00:29.482Z,11.00
2018-05-18T07:02:56.993Z,12.80
2018-05-18T07:05:24.444Z,11.93
2018-05-18T07:07:51.911Z,11.90
2018-05-18T07:10:19.358Z,12.27
2018-05-18T07:12:46.829Z,12.40
2018-05-18T07:15:14.279Z,12.20
2018-05-18T07:17:41.746Z,11.83
2018-05-18T07:20:09.192Z,11.63
2018-05-18T07:22:36.671Z,11.53
2018-05-18T07:25:04.112Z,11.77
2018-05-18T07:27:31.581Z,10.93
2018-05-18T07:29:59.097Z,11.60
2018-05-18T07:32:26.498Z,12.03
2018-05-18T07:34:53.980Z,13.07
2018-05-18T07:37:21.433Z,12.43
2018-05-18T07:39:48.884Z,13.70
2018-05-18T07:42:16.345Z,12.47
2018-05-18T07:44:43.787Z,12.73
2018-05-18T07:47:11.242Z,12.07
2018-05-18T07:49:39.474Z,12.67
2018-05-18T07:52:06.945Z,11.93
2018-05-18T07:54:34.397Z,11.50
2018-05-18T07:57:01.860Z,12.83
2018-05-18T07:59:29.373Z,12.80
2018-05-18T08:01:56.783Z,12.50
2018-05-18T08:04:24.223Z,12.70
2018-05-18T08:06:51.690Z,11.80
2018-05-18T08:09:19.152Z,11.80
2018-05-18T08:11:46.610Z,12.30
2018-05-18T08:14:14.101Z,13.07
2018-05-18T08:16:41.564Z,12.63
2018-05-18T08:19:09.052Z,12.87
2018-05-18T08:21:36.534Z,13.00
2018-05-18T08:24:03.984Z,12.90
2018-05-18T08:26:31.429Z,13.20
2018-05-18T08:29:10.663Z,12.47
2018-05-18T08:31:38.118Z,12.30
2018-05-18T08:34:05.615Z,12.67
2018-05-18T08:36:33.834Z,13.03
2018-05-18T08:39:01.289Z,12.80
2018-05-18T08:41:28.749Z,13.47
2018-05-18T08:43:56.218Z,13.37
2018-05-18T08:46:23.670Z,12.60
2018-05-18T08:48:51.145Z,12.77
2018-05-18T08:51:18.605Z,11.83
2018-05-18T08:53:46.065Z,13.63
2018-05-18T08:56:13.525Z,12.43
2018-05-18T08:58:40.983Z,13.18
2018-05-18T09:01:08.425Z,12.13
2018-05-18T09:03:36.647Z,11.63
2018-05-18T09:06:04.124Z,12.90
2018-05-18T09:08:31.667Z,11.48
2018-05-18T09:10:59.114Z,12.13
2018-05-18T09:13:26.582Z,12.73
2018-05-18T09:15:54.037Z,12.45
2018-05-18T09:18:21.506Z,12.20
2018-05-18T09:20:48.944Z,12.32
2018-05-18T09:23:17.162Z,11.68
2018-05-18T09:25:44.616Z,12.70
2018-05-18T09:28:12.080Z,12.23
2018-05-18T09:30:39.535Z,11.12
2018-05-18T09:33:06.986Z,11.95
2018-05-18T09:35:34.427Z,12.15
2018-05-18T09:38:02.665Z,12.85
2018-05-18T09:40:30.127Z,12.93
2018-05-18T09:42:57.597Z,12.30
2018-05-18T09:45:25.049Z,13.93
2018-05-18T09:47:52.493Z,12.30
2018-05-18T09:50:20.003Z,11.82
2018-05-18T09:52:47.469Z,11.75
2018-05-18T09:55:15.122Z,12.57
2018-05-18T09:57:43.164Z,10.57
2018-05-18T10:00:10.632Z,12.60
2018-05-18T10:02:38.084Z,11.95
2018-05-18T10:05:05.550Z,12.20
2018-05-18T10:07:33.016Z,12.32
2018-05-18T10:10:00.505Z,12.80
2018-05-18T10:12:27.992Z,12.37
2018-05-18T10:14:55.403Z,13.27
2018-05-18T10:17:22.858Z,12.15
2018-05-18T10:19:50.309Z,11.10
2018-05-18T10:22:17.764Z,13.40
2018-05-18T10:24:45.981Z,12.13
2018-05-18T10:27:14.211Z,13.18
2018-05-18T10:29:42.428Z,11.55
2018-05-18T10:32:09.885Z,11.77
2018-05-18T10:34:37.340Z,11.93
2018-05-18T10:37:04.804Z,12.73
2018-05-18T10:39:32.318Z,11.80
2018-05-18T10:41:59.731Z,12.70
2018-05-18T10:44:27.192Z,12.07
2018-05-18T10:46:54.652Z,11.60
2018-05-18T10:49:22.134Z,11.07
2018-05-18T10:51:49.582Z,11.52
2018-05-18T10:54:17.042Z,10.27
2018-05-18T10:56:45.447Z,11.48
2018-05-18T10:59:12.906Z,10.45
2018-05-18T11:01:40.354Z,10.35
2018-05-18T11:04:07.801Z,10.77
2018-05-18T11:06:35.285Z,10.95
2018-05-18T11:09:02.737Z,11.90
2018-05-18T11:11:30.201Z,9.13
2018-05-18T11:13:57.784Z,9.85
2018-05-18T11:16:25.124Z,9.82
2018-05-18T11:18:52.575Z,9.23
2018-05-18T11:21:20.024Z,9.00
2018-05-18T11:23:48.241Z,10.93
2018-05-18T11:26:15.743Z,9.20
2018-05-18T11:28:43.145Z,9.65
2018-05-18T11:31:10.613Z,10.00
2018-05-18T11:33:38.054Z,9.13
2018-05-18T11:36:06.297Z,9.93
2018-05-18T11:38:33.748Z,9.38
2018-05-18T11:41:01.205Z,8.90
2018-05-18T11:43:28.666Z,10.02
2018-05-18T11:45:56.129Z,10.30
2018-05-18T11:48:23.580Z,9.60
2018-05-18T11:50:51.028Z,8.10
2018-05-18T11:53:18.478Z,8.63
2018-05-18T11:55:45.963Z,8.25
2018-05-18T11:58:13.418Z,9.20
2018-05-18T12:00:40.877Z,8.85
2018-05-18T12:03:08.341Z,8.52
2018-05-18T12:05:35.799Z,7.10
2018-05-18T12:08:03.243Z,6.95
2018-05-18T12:10:31.471Z,6.18
2018-05-18T12:12:58.934Z,8.27
2018-05-18T12:15:26.396Z,7.80
2018-05-18T12:17:53.865Z,8.43
2018-05-18T12:20:21.373Z,8.63
2018-05-18T12:22:48.753Z,8.15
2018-05-18T12:25:16.197Z,7.47
2018-05-18T12:27:44.409Z,8.27
2018-05-18T12:30:11.860Z,7.07
2018-05-18T12:32:39.329Z,7.55
2018-05-18T12:35:06.771Z,7.70
2018-05-18T12:37:34.236Z,7.60
2018-05-18T12:40:01.708Z,7.12
2018-05-18T12:42:29.165Z,6.60
2018-05-18T12:44:56.623Z,6.93
2018-05-18T12:47:24.896Z,7.30
2018-05-18T12:49:53.124Z,7.07
2018-05-18T12:52:20.579Z,7.55
2018-05-18T12:54:48.029Z,7.00
2018-05-18T12:57:15.496Z,7.35
2018-05-18T12:59:42.952Z,7.00
2018-05-18T13:02:10.387Z,8.52
2018-05-18T13:04:37.839Z,8.43
2018-05-18T13:07:06.060Z,7.93
2018-05-18T13:09:33.524Z,6.05
2018-05-18T13:12:01.077Z,5.72
2018-05-18T13:14:28.524Z,7.03
2018-05-18T13:16:55.966Z,6.47
2018-05-18T13:19:24.206Z,6.30
2018-05-18T13:21:51.681Z,6.35
2018-05-18T13:24:19.159Z,6.30
2018-05-18T13:26:46.617Z,6.75
2018-05-18T13:29:14.081Z,5.75
2018-05-18T13:31:41.556Z,6.70
2018-05-18T13:34:09.786Z,6.28
2018-05-18T13:36:37.267Z,6.82
2018-05-18T13:39:05.540Z,7.18
2018-05-18T13:41:32.982Z,7.37
2018-05-18T13:44:00.443Z,7.28
2018-05-18T13:46:27.904Z,5.62
2018-05-18T13:48:55.375Z,6.30
2018-05-18T13:51:22.863Z,6.10
2018-05-18T13:53:50.330Z,5.55
2018-05-18T13:56:17.786Z,7.47
2018-05-18T13:58:45.241Z,7.25
2018-05-18T14:01:12.691Z,6.90
2018-05-18T14:03:40.144Z,6.95
2018-05-18T14:06:07.595Z,6.35
2018-05-18T14:08:35.058Z,6.03
2018-05-18T14:11:02.573Z,6.18
2018-05-18T14:13:30.746Z,7.35
2018-05-18T14:15:58.899Z,6.55
2018-05-18T14:18:26.348Z,6.97
2018-05-18T14:20:54.673Z,6.43
2018-05-18T14:23:22.119Z,7.32
2018-05-18T14:25:49.585Z,5.25
2018-05-18T14:28:17.052Z,6.80
2018-05-18T14:30:44.525Z,7.07
2018-05-18T14:33:11.994Z,6.07
2018-05-18T14:35:39.445Z,6.03
2018-05-18T14:38:06.984Z,7.37
2018-05-18T14:40:34.353Z,6.12
2018-05-18T14:43:01.810Z,6.37
2018-05-18T14:45:29.276Z,7.35
2018-05-18T14:47:56.734Z,6.90
2018-05-18T14:50:24.284Z,6.60
2018-05-18T14:52:51.728Z,6.50
2018-05-18T14:55:19.192Z,5.72
2018-05-18T14:57:46.652Z,7.15
2018-05-18T15:00:14.149Z,6.68
2018-05-18T15:02:41.600Z,6.47
2018-05-18T15:05:09.067Z,6.45
2018-05-18T15:07:36.528Z,6.03
2018-05-18T15:10:03.987Z,5.75
2018-05-18T15:12:31.638Z,6.72
2018-05-18T15:14:59.117Z,6.47
2018-05-18T15:17:26.568Z,6.35
2018-05-18T15:19:54.046Z,5.95
2018-05-18T15:22:21.509Z,5.68
2018-05-18T15:24:48.962Z,6.03
2018-05-18T15:27:16.409Z,6.55
2018-05-18T15:29:43.860Z,7.68
2018-05-18T15:32:12.080Z,6.95
2018-05-18T15:34:39.534Z,6.85
2018-05-18T15:37:06.978Z,6.60
2018-05-18T15:39:34.421Z,7.82
2018-05-18T15:42:02.638Z,6.50
2018-05-18T15:44:30.092Z,6.32
2018-05-18T15:46:57.555Z,6.75
2018-05-18T15:49:25.075Z,6.47
2018-05-18T15:51:53.244Z,6.53
2018-05-18T15:54:20.687Z,5.68
2018-05-18T15:56:48.163Z,5.93
2018-05-18T15:59:15.615Z,5.80
2018-05-18T16:01:43.085Z,5.50
2018-05-18T16:04:10.547Z,6.15
2018-05-18T16:06:37.999Z,5.37
2018-05-18T16:09:05.453Z,5.07
2018-05-18T16:11:32.929Z,5.78
2018-05-18T16:14:00.384Z,5.40
2018-05-18T16:16:27.853Z,4.93
2018-05-18T16:18:55.293Z,4.78
2018-05-18T16:21:22.746Z,5.12
2018-05-18T16:23:50.204Z,5.10
2018-05-18T16:26:17.681Z,5.53
2018-05-18T16:28:45.124Z,6.37
2018-05-18T16:31:12.585Z,4.70
2018-05-18T16:33:40.033Z,5.45
2018-05-18T16:36:08.283Z,5.12
2018-05-18T16:38:35.749Z,5.85
2018-05-18T16:41:03.196Z,6.18
2018-05-18T16:43:30.649Z,5.90
2018-05-18T16:45:58.111Z,6.53
2018-05-18T16:48:26.351Z,6.87
2018-05-18T16:50:53.812Z,7.60
2018-05-18T16:53:21.293Z,7.53
2018-05-18T16:55:48.753Z,8.23
2018-05-18T16:58:16.202Z,7.50
2018-05-18T17:00:43.654Z,7.95
2018-05-18T17:03:11.116Z,7.25
2018-05-18T17:05:39.320Z,7.78
2018-05-18T17:08:06.786Z,7.62
2018-05-18T17:10:34.231Z,8.20
2018-05-18T17:13:01.681Z,8.48
2018-05-18T17:15:29.916Z,8.75
2018-05-18T17:17:57.375Z,8.18
2018-05-18T17:20:25.609Z,8.38
2018-05-18T17:22:53.833Z,9.32
2018-05-18T17:25:21.298Z,9.07
2018-05-18T17:27:48.768Z,9.02
2018-05-18T17:30:16.216Z,8.25
2018-05-18T17:32:43.684Z,9.95
2018-05-18T17:35:11.150Z,9.98
2018-05-18T17:37:38.612Z,10.43
2018-05-18T17:40:06.073Z,10.18
2018-05-18T17:42:33.620Z,12.20
2018-05-18T17:45:01.023Z,12.43
2018-05-18T17:47:28.476Z,11.85
2018-05-18T17:49:55.917Z,12.82
2018-05-18T17:52:23.386Z,13.00
2018-05-18T17:54:50.844Z,13.20
2018-05-18T17:57:18.321Z,11.88
2018-05-18T17:59:45.777Z,12.55
2018-05-18T18:02:13.238Z,12.50
2018-05-18T18:04:40.722Z,12.52
2018-05-18T18:07:08.139Z,13.48
2018-05-18T18:09:35.610Z,14.75
2018-05-18T18:12:03.057Z,13.82
2018-05-18T18:14:30.520Z,14.20
2018-05-18T18:16:57.986Z,14.35
2018-05-18T18:19:25.470Z,14.23
2018-05-18T18:21:52.915Z,14.77
2018-05-18T18:24:20.372Z,14.77
2018-05-18T18:26:47.829Z,14.57
2018-05-18T18:29:15.305Z,16.70
2018-05-18T18:31:42.773Z,16.10
2018-05-18T18:34:10.228Z,16.50
2018-05-18T18:36:37.667Z,16.05
2018-05-18T18:39:06.032Z,16.58
2018-05-18T18:41:34.251Z,16.37
2018-05-18T18:44:01.719Z,17.95
2018-05-18T18:46:30.190Z,18.00
2018-05-18T18:48:57.756Z,16.80
2018-05-18T18:51:25.195Z,15.60
2018-05-18T18:53:53.424Z,15.38
2018-05-18T18:56:20.872Z,15.05
2018-05-18T18:58:48.355Z,14.85
2018-05-18T19:01:15.808Z,14.60
2018-05-18T19:03:43.275Z,13.65
2018-05-18T19:06:10.720Z,13.98
2018-05-18T19:08:38.198Z,12.93
2018-05-18T19:11:05.647Z,12.27
2018-05-18T19:13:33.110Z,11.93
2018-05-18T19:16:00.569Z,12.75
2018-05-18T19:18:28.024Z,12.02
2018-05-18T19:20:55.483Z,12.55
2018-05-18T19:23:22.950Z,12.00
2018-05-18T19:25:50.421Z,11.00
2018-05-18T19:28:18.132Z,11.55
2018-05-18T19:30:45.592Z,12.30
2018-05-18T19:33:13.048Z,12.57
2018-05-18T19:35:40.507Z,12.00
2018-05-18T19:38:07.949Z,12.27
2018-05-18T19:40:35.414Z,11.88
2018-05-18T19:43:02.879Z,11.75
2018-05-18T19:45:31.103Z,12.70
2018-05-18T19:47:59.319Z,14.07
2018-05-18T19:50:27.625Z,12.90
2018-05-18T19:52:55.078Z,13.65
2018-05-18T19:55:22.538Z,13.65
2018-05-18T19:57:50.769Z,14.68
2018-05-18T20:00:19.001Z,16.08
2018-05-18T20:02:46.462Z,18.73
2018-05-18T20:05:13.913Z,16.87
2018-05-18T20:07:41.394Z,19.50
2018-05-18T20:10:08.849Z,19.83
2018-05-18T20:12:36.311Z,19.23
2018-05-18T20:15:03.785Z,18.02
2018-05-18T20:17:31.245Z,19.67
2018-05-18T20:19:58.707Z,18.77
2018-05-18T20:22:26.167Z,20.20
2018-05-18T20:24:53.651Z,19.40
2018-05-18T20:27:21.887Z,19.05
2018-05-18T20:29:49.350Z,19.23
2018-05-18T20:32:16.804Z,20.23
2018-05-18T20:34:44.276Z,19.10
2018-05-18T20:37:11.758Z,20.30
2018-05-18T20:39:39.239Z,19.02
2018-05-18T20:42:07.597Z,17.95
2018-05-18T20:44:35.036Z,19.67
2018-05-18T20:47:02.502Z,18.02
2018-05-18T20:49:29.957Z,17.40
2018-05-18T20:51:57.420Z,18.60
2018-05-18T20:54:24.862Z,18.25
2018-05-18T20:56:54.018Z,17.42
2018-05-18T20:59:21.478Z,17.98
2018-05-18T21:01:49.000Z,17.87
2018-05-18T21:04:16.451Z,17.15
2018-05-18T21:06:44.721Z,17.37
2018-05-18T21:09:12.971Z,17.37
2018-05-18T21:11:40.413Z,16.20
2018-05-18T21:14:07.875Z,17.35
2018-05-18T21:16:35.332Z,14.90
2018-05-18T21:19:02.780Z,15.47
2018-05-18T21:21:30.257Z,15.47
2018-05-18T21:23:57.706Z,14.13
2018-05-18T21:26:25.167Z,15.48
2018-05-18T21:28:52.615Z,15.57
2018-05-18T21:31:20.838Z,15.50
2018-05-18T21:33:48.279Z,15.13
2018-05-18T21:36:15.731Z,15.53
2018-05-18T21:38:43.172Z,14.37
2018-05-18T21:41:11.401Z,15.27
2018-05-18T21:43:38.844Z,14.80
2018-05-18T21:46:06.325Z,14.35
2018-05-18T21:48:33.769Z,14.27
2018-05-18T21:51:01.217Z,14.90
2018-05-18T21:53:29.446Z,14.05
2018-05-18T21:55:56.895Z,14.57
2018-05-18T21:58:24.358Z,14.50
2018-05-18T22:00:51.809Z,14.03
2018-05-18T22:03:19.265Z,13.97
2018-05-18T22:05:46.717Z,15.68
2018-05-18T22:08:14.179Z,14.43
2018-05-18T22:10:41.631Z,14.50
2018-05-18T22:13:09.098Z,13.90
2018-05-18T22:15:36.541Z,13.65
2018-05-18T22:18:04.796Z,13.65
2018-05-18T22:20:32.238Z,13.47
2018-05-18T22:22:59.679Z,14.40
2018-05-18T22:25:27.132Z,14.83
2018-05-18T22:27:54.581Z,13.20
2018-05-18T22:30:22.783Z,13.02
2018-05-18T22:32:50.244Z,13.25
2018-05-18T22:35:17.693Z,13.57
2018-05-18T22:37:45.154Z,13.10
2018-05-18T22:40:12.616Z,13.50
2018-05-18T22:42:40.086Z,13.57
2018-05-18T22:45:07.540Z,13.93
2018-05-18T22:47:35.836Z,14.23
2018-05-18T22:50:03.297Z,13.90
2018-05-18T22:52:30.768Z,14.45
2018-05-18T22:54:58.222Z,13.30
2018-05-18T22:57:25.692Z,12.87
2018-05-18T22:59:53.167Z,14.20
2018-05-18T23:02:20.631Z,13.93
2018-05-18T23:04:48.079Z,15.60
2018-05-18T23:07:15.541Z,14.00
2018-05-18T23:09:42.997Z,14.80
2018-05-18T23:12:10.463Z,14.70
2018-05-18T23:14:37.914Z,14.13
2018-05-18T23:17:05.356Z,13.83
2018-05-18T23:19:32.877Z,12.73
2018-05-18T23:22:00.337Z,13.10
2018-05-18T23:24:27.790Z,12.97
2018-05-18T23:26:55.248Z,14.07
2018-05-18T23:29:22.699Z,13.27
2018-05-18T23:31:50.157Z,14.90
2018-05-18T23:34:18.371Z,15.17
2018-05-18T23:36:45.815Z,15.50
2018-05-18T23:39:13.263Z,15.43
2018-05-18T23:41:41.485Z,15.83
2018-05-18T23:44:08.945Z,15.63
2018-05-18T23:46:36.445Z,13.77
2018-05-18T23:49:04.655Z,14.50
2018-05-18T23:51:32.128Z,13.33
2018-05-18T23:53:59.577Z,14.00
2018-05-18T23:56:27.024Z,14.20
2018-05-18T23:58:54.497Z,13.17
